createdAt,value
2023-04-15T00:02:15.184Z,3.95
2023-04-15T00:04:44.632Z,4.72
2023-04-15T00:07:13.680Z,4.32
2023-04-15T00:09:43.272Z,4.22
2023-04-15T00:12:13.230Z,4.10
2023-04-15T00:14:43.535Z,3.38
2023-04-15T00:17:12.532Z,5.18
2023-04-15T00:19:42.046Z,3.72
2023-04-15T00:22:10.784Z,6.05
2023-04-15T00:24:39.628Z,5.28
2023-04-15T00:27:08.577Z,6.15
2023-04-15T00:29:37.363Z,4.63
2023-04-15T00:32:08.022Z,3.67
2023-04-15T00:34:38.073Z,5.38
2023-04-15T00:37:07.975Z,5.88
2023-04-15T00:39:37.834Z,5.55
2023-04-15T00:42:07.209Z,5.00
2023-04-15T00:44:36.250Z,3.75
2023-04-15T00:47:07.908Z,6.63
2023-04-15T00:49:37.394Z,4.05
2023-04-15T00:52:06.396Z,4.05
2023-04-15T00:54:35.214Z,6.03
2023-04-15T00:57:06.475Z,3.13
2023-04-15T00:59:35.757Z,4.35
2023-04-15T01:02:04.939Z,4.75
2023-04-15T01:04:35.627Z,4.65
2023-04-15T01:07:04.505Z,5.88
2023-04-15T01:09:34.417Z,4.10
2023-04-15T01:12:04.183Z,3.47
2023-04-15T01:14:34.559Z,3.83
2023-04-15T01:17:03.867Z,3.55
2023-04-15T01:19:34.182Z,3.15
2023-04-15T01:22:04.201Z,3.17
2023-04-15T01:24:34.272Z,3.75
2023-04-15T01:27:04.609Z,3.83
2023-04-15T01:29:34.266Z,2.80
2023-04-15T01:32:03.234Z,2.47
2023-04-15T01:34:34.235Z,2.55
2023-04-15T01:37:04.294Z,3.83
2023-04-15T01:39:33.633Z,2.35
2023-04-15T01:42:04.202Z,3.13
2023-04-15T01:44:32.976Z,2.72
2023-04-15T01:47:01.948Z,2.75
2023-04-15T01:49:31.014Z,3.33
2023-04-15T01:51:59.789Z,3.40
2023-04-15T01:54:28.705Z,2.58
2023-04-15T01:56:57.963Z,2.70
2023-04-15T01:59:28.314Z,3.20
2023-04-15T02:01:57.528Z,3.80
2023-04-15T02:04:26.785Z,2.22
2023-04-15T02:06:55.836Z,2.63
2023-04-15T02:09:25.053Z,3.30
2023-04-15T02:11:54.437Z,3.15
2023-04-15T02:14:23.170Z,4.03
2023-04-15T02:16:53.569Z,3.45
2023-04-15T02:19:22.603Z,3.92
2023-04-15T02:21:51.488Z,4.22
2023-04-15T02:24:20.295Z,5.57
2023-04-15T02:26:49.078Z,7.60
2023-04-15T02:29:17.968Z,4.72
2023-04-15T02:31:48.233Z,8.30
2023-04-15T02:34:18.616Z,6.75
2023-04-15T02:36:48.838Z,7.25
2023-04-15T02:39:18.897Z,8.27
2023-04-15T02:41:52.076Z,11.32
2023-04-15T02:44:22.155Z,9.80
2023-04-15T02:46:53.732Z,11.90
2023-04-15T02:49:25.095Z,12.50
2023-04-15T02:51:54.077Z,14.40
2023-04-15T02:54:23.942Z,14.68
2023-04-15T02:56:55.352Z,11.55
2023-04-15T02:59:25.434Z,12.20
2023-04-15T03:01:55.497Z,10.80
2023-04-15T03:04:26.739Z,10.40
2023-04-15T03:06:55.591Z,13.57
2023-04-15T03:09:24.687Z,16.23
2023-04-15T03:11:54.763Z,15.85
2023-04-15T03:14:23.910Z,18.65
2023-04-15T03:16:52.711Z,20.42
2023-04-15T03:19:21.868Z,21.77
2023-04-15T03:21:52.211Z,18.60
2023-04-15T03:24:22.040Z,16.85
2023-04-15T03:26:51.064Z,16.65
2023-04-15T03:29:20.374Z,17.77
2023-04-15T03:31:49.621Z,19.25
2023-04-15T03:34:18.879Z,15.07
2023-04-15T03:36:48.046Z,14.80
2023-04-15T03:39:18.230Z,17.15
2023-04-15T03:41:47.286Z,11.65
2023-04-15T03:44:16.409Z,13.00
2023-04-15T03:46:45.398Z,10.18
2023-04-15T03:49:16.173Z,11.88
2023-04-15T03:51:45.161Z,10.18
2023-04-15T03:54:15.358Z,9.75
2023-04-15T03:56:45.890Z,10.73
2023-04-15T03:59:14.958Z,9.90
2023-04-15T04:01:43.808Z,9.43
2023-04-15T04:04:12.908Z,9.45
2023-04-15T04:06:41.785Z,11.10
2023-04-15T04:09:10.592Z,6.93
2023-04-15T04:11:48.735Z,8.77
2023-04-15T04:14:26.649Z,8.35
2023-04-15T04:16:55.819Z,9.25
2023-04-15T04:19:24.789Z,8.90
2023-04-15T04:21:53.909Z,6.93
2023-04-15T04:24:22.890Z,8.07
2023-04-15T04:26:51.616Z,6.50
2023-04-15T04:29:22.078Z,9.57
2023-04-15T04:31:51.413Z,6.38
2023-04-15T04:34:20.257Z,6.90
2023-04-15T04:36:49.238Z,6.53
2023-04-15T04:39:18.139Z,7.47
2023-04-15T04:41:47.005Z,9.02
2023-04-15T04:44:16.008Z,7.88
2023-04-15T04:46:46.328Z,7.22
2023-04-15T04:49:15.499Z,8.23
2023-04-15T04:51:44.355Z,7.43
2023-04-15T04:54:13.691Z,8.50
2023-04-15T04:56:42.472Z,10.98
2023-04-15T04:59:11.311Z,15.95
2023-04-15T05:01:40.442Z,9.40
2023-04-15T05:04:10.701Z,8.35
2023-04-15T05:06:39.622Z,8.45
2023-04-15T05:09:08.444Z,6.47
2023-04-15T05:11:37.299Z,6.80
2023-04-15T05:14:06.255Z,9.02
2023-04-15T05:16:35.124Z,7.38
2023-04-15T05:19:04.089Z,9.10
2023-04-15T05:21:34.211Z,10.25
2023-04-15T05:24:03.131Z,8.73
2023-04-15T05:26:32.117Z,8.43
2023-04-15T05:29:01.359Z,7.00
2023-04-15T05:31:30.748Z,9.35
2023-04-15T05:33:59.897Z,9.00
2023-04-15T05:36:28.850Z,6.45
2023-04-15T05:38:59.521Z,7.03
2023-04-15T05:41:28.966Z,7.88
2023-04-15T05:43:57.895Z,9.88
2023-04-15T05:46:27.760Z,7.75
2023-04-15T05:48:56.881Z,11.73
2023-04-15T05:51:26.199Z,9.15
2023-04-15T05:53:58.193Z,8.68
2023-04-15T05:56:28.905Z,12.00
2023-04-15T05:58:57.946Z,8.85
2023-04-15T06:01:26.881Z,27.45
2023-04-15T06:03:56.120Z,12.30
2023-04-15T06:06:25.486Z,11.82
2023-04-15T06:08:55.852Z,14.52
2023-04-15T06:11:25.031Z,7.90
2023-04-15T06:13:55.198Z,8.82
2023-04-15T06:16:24.383Z,8.93
2023-04-15T06:18:53.560Z,8.30
2023-04-15T06:21:22.568Z,9.93
2023-04-15T06:23:54.239Z,10.95
2023-04-15T06:26:23.153Z,8.27
2023-04-15T06:28:52.091Z,8.27
2023-04-15T06:31:22.725Z,9.20
2023-04-15T06:33:52.077Z,10.02
2023-04-15T06:36:21.295Z,11.80
2023-04-15T06:38:50.471Z,9.00
2023-04-15T06:41:19.696Z,8.50
2023-04-15T06:43:48.748Z,10.55
2023-04-15T06:46:17.842Z,6.90
2023-04-15T06:48:48.648Z,7.35
2023-04-15T06:51:17.634Z,7.50
2023-04-15T06:53:46.549Z,8.57
2023-04-15T06:56:16.075Z,8.68
2023-04-15T06:58:45.090Z,9.00
2023-04-15T07:01:15.731Z,12.40
2023-04-15T07:03:44.709Z,6.38
2023-04-15T07:06:15.044Z,8.88
2023-04-15T07:08:43.989Z,10.07
2023-04-15T07:11:13.249Z,7.78
2023-04-15T07:13:42.177Z,9.15
2023-04-15T07:16:11.033Z,6.30
2023-04-15T07:18:40.139Z,9.43
2023-04-15T07:21:09.006Z,10.60
2023-04-15T07:23:39.489Z,7.55
2023-04-15T07:26:09.818Z,6.65
2023-04-15T07:28:38.608Z,7.47
2023-04-15T07:31:07.606Z,6.88
2023-04-15T07:33:37.074Z,8.02
2023-04-15T07:36:06.346Z,10.77
2023-04-15T07:38:35.162Z,9.77
2023-04-15T07:41:05.556Z,10.15
2023-04-15T07:43:34.359Z,7.75
2023-04-15T07:46:03.266Z,9.82
2023-04-15T07:48:32.170Z,12.65
2023-04-15T07:51:02.824Z,11.35
2023-04-15T07:53:33.081Z,8.65
2023-04-15T07:56:02.035Z,11.02
2023-04-15T07:58:32.246Z,8.73
2023-04-15T08:01:01.278Z,8.50
2023-04-15T08:03:32.300Z,9.13
2023-04-15T08:06:01.267Z,9.70
2023-04-15T08:08:30.303Z,10.82
2023-04-15T08:10:59.967Z,14.48
2023-04-15T08:13:29.317Z,11.93
2023-04-15T08:16:19.749Z,13.73
2023-04-15T08:18:52.851Z,8.80
2023-04-15T08:21:22.159Z,9.23
2023-04-15T08:23:52.938Z,11.23
2023-04-15T08:26:22.759Z,17.58
2023-04-15T08:28:51.837Z,13.85
2023-04-15T08:31:22.354Z,14.82
2023-04-15T08:33:53.656Z,14.98
2023-04-15T08:36:22.594Z,11.05
2023-04-15T08:38:52.176Z,14.52
2023-04-15T08:41:24.556Z,10.27
2023-04-15T08:43:59.470Z,12.95
2023-04-15T08:46:30.991Z,12.43
2023-04-15T08:49:00.938Z,13.63
2023-04-15T08:51:30.758Z,15.55
2023-04-15T08:53:59.750Z,12.63
2023-04-15T08:56:32.735Z,12.63
2023-04-15T08:59:04.566Z,12.40
2023-04-15T09:01:35.694Z,13.10
2023-04-15T09:04:06.760Z,10.35
2023-04-15T09:06:36.388Z,10.77
2023-04-15T09:09:05.612Z,14.05
2023-04-15T09:11:34.716Z,13.48
2023-04-15T09:14:03.719Z,13.43
2023-04-15T09:16:34.924Z,11.82
2023-04-15T09:19:23.801Z,11.30
2023-04-15T09:21:53.346Z,12.18
2023-04-15T09:24:22.746Z,9.43
2023-04-15T09:26:55.485Z,8.85
2023-04-15T09:29:26.835Z,8.50
2023-04-15T09:31:57.140Z,8.57
2023-04-15T09:34:37.459Z,13.68
2023-04-15T09:37:07.767Z,10.00
2023-04-15T09:39:51.098Z,9.23
2023-04-15T09:42:24.521Z,7.32
2023-04-15T09:44:54.638Z,8.48
2023-04-15T09:47:32.377Z,7.72
2023-04-15T09:50:02.528Z,8.50
2023-04-15T09:52:32.164Z,10.32
2023-04-15T09:55:01.963Z,5.47
2023-04-15T09:57:36.763Z,5.50
2023-04-15T10:00:06.618Z,6.63
2023-04-15T10:02:37.345Z,7.65
2023-04-15T10:05:07.601Z,6.18
2023-04-15T10:07:36.737Z,5.80
2023-04-15T10:10:06.717Z,13.20
2023-04-15T10:12:36.072Z,8.80
2023-04-15T10:15:07.155Z,6.47
2023-04-15T10:17:38.264Z,9.40
2023-04-15T10:20:09.532Z,8.00
2023-04-15T10:22:39.768Z,6.00
2023-04-15T10:25:10.091Z,6.07
2023-04-15T10:27:40.792Z,4.35
2023-04-15T10:30:11.555Z,7.88
2023-04-15T10:32:42.881Z,4.53
2023-04-15T10:35:12.742Z,6.35
2023-04-15T10:37:41.486Z,5.30
2023-04-15T10:40:28.329Z,4.30
2023-04-15T10:42:57.912Z,5.45
2023-04-15T10:45:34.067Z,4.55
2023-04-15T10:48:06.349Z,4.75
2023-04-15T10:53:04.870Z,2.95
2023-04-15T10:55:35.357Z,3.05
2023-04-15T10:58:04.570Z,3.63
2023-04-15T11:00:35.849Z,4.68
2023-04-15T11:03:10.049Z,4.65
2023-04-15T11:05:53.063Z,2.90
2023-04-15T11:08:22.113Z,4.65
2023-04-15T11:10:57.456Z,4.70
2023-04-15T11:13:31.510Z,2.00
2023-04-15T11:16:02.054Z,3.67
2023-04-15T11:18:36.371Z,4.95
2023-04-15T11:21:07.471Z,3.85
2023-04-15T11:23:39.969Z,3.78
2023-04-15T11:26:11.984Z,3.42
2023-04-15T11:31:12.714Z,3.28
2023-04-15T11:33:54.698Z,6.32
2023-04-15T11:36:26.602Z,2.90
2023-04-15T11:38:55.730Z,4.15
2023-04-15T11:41:25.348Z,2.78
2023-04-15T11:43:54.470Z,3.00
2023-04-15T11:46:29.959Z,3.03
2023-04-15T11:49:00.387Z,3.08
2023-04-15T11:51:33.988Z,3.95
2023-04-15T11:54:03.884Z,2.53
2023-04-15T11:56:33.177Z,2.35
2023-04-15T11:59:02.231Z,2.97
2023-04-15T12:01:35.364Z,3.20
2023-04-15T12:04:13.073Z,3.25
2023-04-15T12:06:42.370Z,4.20
2023-04-15T12:09:13.353Z,4.00
2023-04-15T12:11:47.618Z,3.05
2023-04-15T12:14:28.238Z,4.63
2023-04-15T12:17:00.319Z,4.55
2023-04-15T12:19:35.833Z,4.68
2023-04-15T12:22:06.713Z,4.25
2023-04-15T12:24:37.097Z,7.35
2023-04-15T12:27:06.974Z,3.78
2023-04-15T12:29:37.711Z,3.70
2023-04-15T12:32:08.585Z,3.63
2023-04-15T12:34:43.163Z,3.40
2023-04-15T12:37:14.294Z,2.25
2023-04-15T12:39:46.046Z,1.45
2023-04-15T12:42:16.054Z,4.38
2023-04-15T12:44:45.089Z,3.25
2023-04-15T12:47:14.347Z,5.82
2023-04-15T12:49:44.819Z,2.05
2023-04-15T12:52:13.756Z,2.20
2023-04-15T12:54:42.808Z,2.70
2023-04-15T12:57:11.661Z,2.53
2023-04-15T12:59:40.584Z,2.10
2023-04-15T13:02:10.153Z,2.75
2023-04-15T13:04:39.485Z,2.67
2023-04-15T13:07:09.720Z,3.72
2023-04-15T13:09:39.732Z,2.30
2023-04-15T13:12:08.929Z,3.22
2023-04-15T13:14:37.789Z,3.67
2023-04-15T13:17:10.224Z,3.33
2023-04-15T13:19:39.852Z,3.53
2023-04-15T13:22:10.098Z,2.55
2023-04-15T13:24:41.186Z,4.07
2023-04-15T13:27:10.285Z,3.25
2023-04-15T13:29:40.442Z,3.30
2023-04-15T13:32:09.323Z,3.90
2023-04-15T13:34:38.317Z,3.33
2023-04-15T13:37:11.746Z,2.50
2023-04-15T13:39:40.621Z,2.38
2023-04-15T13:42:09.594Z,1.40
2023-04-15T13:44:38.526Z,4.18
2023-04-15T13:47:07.381Z,3.95
2023-04-15T13:49:36.216Z,6.72
2023-04-15T13:52:05.170Z,4.38
2023-04-15T13:54:37.406Z,6.13
2023-04-15T13:57:10.586Z,3.28
2023-04-15T14:02:08.431Z,2.85
2023-04-15T14:04:37.446Z,2.90
2023-04-15T14:07:06.635Z,1.42
2023-04-15T14:09:42.985Z,2.50
2023-04-15T14:12:12.188Z,3.33
2023-04-15T14:14:41.466Z,3.50
2023-04-15T14:17:10.314Z,3.20
2023-04-15T14:19:39.205Z,4.30
2023-04-15T14:22:07.936Z,3.83
2023-04-15T14:24:38.285Z,4.55
2023-04-15T14:27:08.657Z,1.98
2023-04-15T14:29:37.583Z,4.88
2023-04-15T14:32:12.277Z,3.15
2023-04-15T14:34:41.898Z,1.38
2023-04-15T14:37:10.814Z,2.45
2023-04-15T14:39:41.101Z,1.70
2023-04-15T14:42:10.088Z,1.85
2023-04-15T14:44:38.992Z,3.80
2023-04-15T14:47:08.101Z,2.03
2023-04-15T14:49:36.907Z,2.25
2023-04-15T14:52:05.995Z,1.33
2023-04-15T14:54:34.930Z,3.33
2023-04-15T14:57:05.413Z,2.30
2023-04-15T14:59:34.292Z,3.08
2023-04-15T15:02:03.942Z,1.25
2023-04-15T15:04:33.786Z,2.90
2023-04-15T15:07:02.718Z,2.60
2023-04-15T15:09:32.849Z,1.92
2023-04-15T15:12:04.269Z,2.88
2023-04-15T15:14:33.078Z,2.10
2023-04-15T15:17:02.127Z,3.25
2023-04-15T15:19:31.421Z,2.67
2023-04-15T15:22:00.295Z,3.30
2023-04-15T15:24:29.582Z,2.83
2023-04-15T15:27:09.498Z,2.03
2023-04-15T15:29:39.951Z,1.92
2023-04-15T15:32:08.860Z,3.45
2023-04-15T15:34:37.725Z,3.38
2023-04-15T15:37:07.300Z,3.50
2023-04-15T15:39:36.642Z,2.50
2023-04-15T15:42:06.800Z,4.00
2023-04-15T15:44:36.361Z,2.80
2023-04-15T15:47:06.941Z,4.70
2023-04-15T15:49:48.067Z,3.30
2023-04-15T15:52:17.097Z,5.50
2023-04-15T15:54:46.030Z,4.82
2023-04-15T15:57:15.066Z,8.68
2023-04-15T15:59:43.933Z,5.47
2023-04-15T16:02:15.217Z,6.45
2023-04-15T16:04:44.503Z,8.70
2023-04-15T16:07:13.573Z,5.25
2023-04-15T16:09:42.677Z,7.03
2023-04-15T16:12:11.560Z,8.88
2023-04-15T16:14:40.812Z,6.03
2023-04-15T16:17:09.656Z,6.50
2023-04-15T16:19:42.867Z,5.60
2023-04-15T16:22:27.352Z,7.28
2023-04-15T16:24:56.187Z,4.35
2023-04-15T16:27:25.247Z,7.57
2023-04-15T16:29:54.114Z,6.20
2023-04-15T16:32:23.089Z,7.10
2023-04-15T16:34:54.157Z,4.72
2023-04-15T16:37:23.180Z,3.20
2023-04-15T16:39:51.952Z,4.32
2023-04-15T16:42:20.880Z,6.85
2023-04-15T16:44:49.798Z,5.82
2023-04-15T16:47:18.848Z,4.53
2023-04-15T16:49:49.431Z,5.00
2023-04-15T16:52:19.821Z,4.70
2023-04-15T16:54:48.608Z,3.42
2023-04-15T16:57:17.472Z,4.20
2023-04-15T16:59:47.102Z,1.85
2023-04-15T17:02:16.405Z,2.75
2023-04-15T17:04:45.348Z,2.15
2023-04-15T17:07:14.259Z,4.20
2023-04-15T17:09:44.368Z,2.15
2023-04-15T17:12:13.127Z,4.18
2023-04-15T17:14:42.038Z,3.47
2023-04-15T17:17:10.839Z,7.93
2023-04-15T17:19:39.757Z,4.43
2023-04-15T17:22:08.679Z,2.88
2023-04-15T17:24:37.568Z,5.35
2023-04-15T17:27:07.777Z,6.25
2023-04-15T17:29:36.687Z,3.00
2023-04-15T17:32:06.637Z,3.63
2023-04-15T17:34:50.641Z,6.55
2023-04-15T17:37:20.342Z,5.50
2023-04-15T17:39:49.214Z,4.88
2023-04-15T17:42:19.503Z,3.70
2023-04-15T17:44:48.301Z,5.03
2023-04-15T17:47:17.145Z,3.40
2023-04-15T17:49:47.284Z,4.05
2023-04-15T17:52:16.269Z,4.70
2023-04-15T17:54:46.510Z,4.32
2023-04-15T17:57:15.360Z,8.40
2023-04-15T17:59:47.450Z,8.18
2023-04-15T18:02:16.548Z,7.28
2023-04-15T18:04:45.818Z,4.00
2023-04-15T18:07:15.525Z,5.68
2023-04-15T18:09:44.478Z,7.15
2023-04-15T18:12:13.421Z,6.60
2023-04-15T18:14:42.382Z,8.88
2023-04-15T18:17:14.490Z,7.30
2023-04-15T18:19:43.684Z,5.65
2023-04-15T18:22:12.586Z,8.43
2023-04-15T18:24:41.465Z,5.60
2023-04-15T18:27:10.530Z,5.63
2023-04-15T18:29:39.620Z,6.35
2023-04-15T18:32:08.493Z,7.40
2023-04-15T18:34:39.104Z,5.07
2023-04-15T18:37:10.893Z,7.78
2023-04-15T18:39:39.705Z,6.65
2023-04-15T18:42:08.792Z,9.00
2023-04-15T18:44:38.424Z,5.53
2023-04-15T18:47:07.283Z,6.07
2023-04-15T18:49:36.309Z,5.97
2023-04-15T18:52:06.681Z,5.00
2023-04-15T18:54:35.604Z,6.53
2023-04-15T18:57:04.941Z,8.25
2023-04-15T18:59:34.717Z,4.22
2023-04-15T19:02:06.497Z,3.70
2023-04-15T19:04:35.514Z,6.10
2023-04-15T19:07:06.053Z,6.03
2023-04-15T19:09:34.964Z,6.20
2023-04-15T19:12:04.013Z,7.18
2023-04-15T19:14:32.792Z,4.82
2023-04-15T19:17:04.802Z,6.05
2023-04-15T19:19:34.155Z,6.47
2023-04-15T19:22:03.502Z,8.18
2023-04-15T19:24:35.198Z,7.07
2023-04-15T19:27:04.304Z,9.70
2023-04-15T19:29:33.282Z,6.32
2023-04-15T19:32:02.171Z,7.05
2023-04-15T19:34:31.129Z,4.55
2023-04-15T19:37:00.122Z,8.60
2023-04-15T19:39:29.688Z,6.20
2023-04-15T19:42:00.099Z,8.38
2023-04-15T19:44:29.084Z,7.15
2023-04-15T19:46:58.533Z,4.93
2023-04-15T19:49:27.767Z,4.38
2023-04-15T19:51:56.504Z,11.02
2023-04-15T19:54:26.579Z,9.38
2023-04-15T19:56:56.337Z,6.50
2023-04-15T19:59:26.750Z,11.35
2023-04-15T20:01:55.723Z,7.18
2023-04-15T20:04:24.850Z,10.75
2023-04-15T20:06:53.920Z,8.98
2023-04-15T20:09:22.712Z,8.05
2023-04-15T20:12:46.743Z,8.77
2023-04-15T20:14:42.243Z,7.05
2023-04-15T20:17:11.276Z,8.75
2023-04-15T20:19:40.295Z,10.57
2023-04-15T20:22:09.095Z,9.35
2023-04-15T20:24:38.298Z,6.38
2023-04-15T20:27:07.419Z,7.22
2023-04-15T20:29:36.564Z,6.60
2023-04-15T20:32:11.420Z,10.02
2023-04-15T20:34:41.206Z,8.70
2023-04-15T20:37:11.888Z,10.93
2023-04-15T20:39:42.557Z,6.38
2023-04-15T20:42:11.365Z,6.75
2023-04-15T20:44:40.342Z,5.22
2023-04-15T20:47:10.770Z,6.93
2023-04-15T20:49:41.232Z,8.48
2023-04-15T20:52:10.798Z,6.70
2023-04-15T20:54:39.752Z,12.50
2023-04-15T20:57:08.696Z,6.25
2023-04-15T20:59:37.527Z,8.95
2023-04-15T21:02:06.693Z,5.35
2023-04-15T21:04:38.410Z,10.15
2023-04-15T21:07:07.293Z,6.45
2023-04-15T21:09:36.218Z,6.80
2023-04-15T21:12:05.465Z,10.27
2023-04-15T21:14:35.066Z,4.57
2023-04-15T21:17:09.166Z,11.32
2023-04-15T21:19:41.518Z,5.97
2023-04-15T21:22:10.836Z,12.50
2023-04-15T21:24:39.731Z,8.32
2023-04-15T21:27:08.486Z,9.10
2023-04-15T21:29:49.570Z,10.85
2023-04-15T21:32:18.764Z,8.15
2023-04-15T21:34:49.631Z,11.15
2023-04-15T21:37:18.481Z,8.10
2023-04-15T21:39:47.629Z,8.73
2023-04-15T21:42:16.698Z,6.78
2023-04-15T21:44:45.643Z,9.48
2023-04-15T21:47:14.953Z,10.55
2023-04-15T21:49:44.112Z,6.43
2023-04-15T21:52:14.555Z,11.05
2023-04-15T21:54:43.586Z,6.32
2023-04-15T21:57:12.587Z,12.27
2023-04-15T21:59:43.925Z,16.33
2023-04-15T22:02:12.887Z,12.38
2023-04-15T22:04:41.953Z,12.77
2023-04-15T22:07:11.496Z,9.80
2023-04-15T22:09:42.060Z,9.18
2023-04-15T22:12:11.205Z,9.52
2023-04-15T22:14:39.973Z,9.77
2023-04-15T22:17:09.262Z,7.80
2023-04-15T22:19:38.071Z,10.25
2023-04-15T22:22:06.964Z,9.90
2023-04-15T22:24:40.180Z,5.07
2023-04-15T22:27:11.299Z,8.77
2023-04-15T22:29:40.332Z,9.30
2023-04-15T22:32:09.335Z,8.40
2023-04-15T22:34:38.273Z,8.50
2023-04-15T22:37:07.740Z,7.90
2023-04-15T22:39:36.623Z,7.15
2023-04-15T22:42:05.449Z,6.22
2023-04-15T22:44:35.741Z,9.35
2023-04-15T22:47:04.651Z,8.23
2023-04-15T22:49:35.187Z,9.90
2023-04-15T22:52:04.205Z,10.80
2023-04-15T22:54:33.134Z,8.00
2023-04-15T22:57:01.956Z,8.60
2023-04-15T22:59:30.953Z,7.47
2023-04-15T23:02:01.422Z,7.97
2023-04-15T23:04:30.561Z,6.80
2023-04-15T23:06:59.756Z,7.10
2023-04-15T23:09:28.774Z,7.15
2023-04-15T23:11:57.940Z,8.63
2023-04-15T23:14:28.095Z,10.75
2023-04-15T23:16:57.950Z,11.00
2023-04-15T23:19:28.310Z,7.72
2023-04-15T23:21:57.412Z,5.25
2023-04-15T23:24:26.328Z,4.10
2023-04-15T23:26:57.290Z,8.48
2023-04-15T23:29:26.346Z,6.93
2023-04-15T23:31:55.449Z,10.13
2023-04-15T23:34:24.420Z,5.68
2023-04-15T23:36:54.716Z,6.72
2023-04-15T23:39:23.461Z,6.55
2023-04-15T23:41:52.286Z,9.02
2023-04-15T23:44:21.721Z,7.10
2023-04-15T23:46:51.344Z,7.63
2023-04-15T23:49:20.603Z,4.82
2023-04-15T23:51:49.819Z,6.93
2023-04-15T23:54:20.178Z,6.70
2023-04-15T23:56:48.985Z,9.75
2023-04-15T23:59:17.890Z,6.47
